Airfield :
LOGIN :

Register | Disclaimer

   EN    FR    IT 

 










Legend :    VFR   Marginal VFR   IFR   Intensive IFR   Very Intensive IFR
Visi :
Ceiling :
>= 8 km
>= 3000ft
5 to 8 km
1000 to 3000 ft
1500m to 5 km
500 to 1000 ft
800 to 1500m
200 to 500 ft
< 800m
< 200 ft
Symbols :   Thunderstorms  Fog  Heavy snow  Heavy precipitations  Wind > 20 kt
SIGMETs :     Misc.  Thunderstorms  Icing  Turbulence  Mountain Waves  Volcanic Ashes







- Airport Elevation : 46 ft
- IATA code : SNN


EINN - Shannon

CURRENT METAR :
  • 231300Z 22005KT 190V270 9999 FEW012 SCT016 OVC032 15/12 Q1016 NOSIG

EXPIRED METARs :
  • 231230Z 22006KT 9999 FEW010 SCT017 BKN029 15/12 Q1016 NOSIG
  • 231200Z 20005KT 170V250 9999 FEW010 SCT024 BKN035 14/12 Q1016 NOSIG
  • 231130Z 21005KT 190V250 9999 -RA FEW008 SCT015 BKN020 14/12 Q1016 NOSIG
  • 231100Z 21005KT 9999 -RA FEW011 BKN020 14/12 Q1016 NOSIG
  • 231030Z 19004KT 150V250 9999 -RA FEW010 SCT014 BKN019 14/11 Q1016 NOSIG

TAF TAF EINN
Valid from the 23 at 12:00 until the 24 at 12:00 UTC


231100Z 2312/2412 VRB03KT 9999 FEW020 BKN050
PROB30
TEMPO 2312/2314 -RA BKN012
PROB30
TEMPO 2321/2407 4000 -RADZ BR BKN012
BECMG 2409/2412 29010KT
No reported NOTAMs for that airfield.



MET'MAP, your aeronautical weather chart ! - Copyright ORBIFLY December 2007 - Disclaimer

ORBIFLY MET'MAP TEAM :

Programming & Development : Alexandra Zaïnal
Concept & Development : Baudouin d'Aumeries
Co-Development & Prog : Marc-Olivier Méhu
Technical & hardware support : Manuel Goepfert

Contact : metmap@orbifly.com




SOURCES & CREDITS :

   NOAA